sensor_id;sensor_type;location;lat;lon;timestamp;temperature;humidity
24636;DHT22;12772;49.794;10.024;2023-01-16T00:01:17;5.80;52.70
24636;DHT22;12772;49.794;10.024;2023-01-16T00:05:20;5.90;52.80
24636;DHT22;12772;49.794;10.024;2023-01-16T00:09:22;6.20;53.10
24636;DHT22;12772;49.794;10.024;2023-01-16T00:13:24;6.10;53.00
24636;DHT22;12772;49.794;10.024;2023-01-16T00:17:26;5.70;52.40
24636;DHT22;12772;49.794;10.024;2023-01-16T00:21:28;6.20;52.90
24636;DHT22;12772;49.794;10.024;2023-01-16T00:25:30;6.10;52.50
24636;DHT22;12772;49.794;10.024;2023-01-16T00:29:32;6.00;52.50
24636;DHT22;12772;49.794;10.024;2023-01-16T00:33:34;6.10;52.40
24636;DHT22;12772;49.794;10.024;2023-01-16T00:37:36;6.20;52.30
24636;DHT22;12772;49.794;10.024;2023-01-16T00:41:38;6.00;52.20
24636;DHT22;12772;49.794;10.024;2023-01-16T00:45:40;6.10;52.60
24636;DHT22;12772;49.794;10.024;2023-01-16T00:49:43;6.10;52.50
24636;DHT22;12772;49.794;10.024;2023-01-16T00:53:45;6.00;52.40
24636;DHT22;12772;49.794;10.024;2023-01-16T00:57:47;6.40;53.00
24636;DHT22;12772;49.794;10.024;2023-01-16T01:01:49;6.00;52.50
24636;DHT22;12772;49.794;10.024;2023-01-16T01:05:51;5.80;52.30
24636;DHT22;12772;49.794;10.024;2023-01-16T01:09:53;6.30;52.30
24636;DHT22;12772;49.794;10.024;2023-01-16T01:13:55;6.30;52.20
24636;DHT22;12772;49.794;10.024;2023-01-16T01:17:57;6.20;51.80
24636;DHT22;12772;49.794;10.024;2023-01-16T01:21:59;6.20;51.70
24636;DHT22;12772;49.794;10.024;2023-01-16T01:26:13;5.90;51.30
24636;DHT22;12772;49.794;10.024;2023-01-16T01:30:16;6.30;51.40
24636;DHT22;12772;49.794;10.024;2023-01-16T01:34:18;6.70;51.70
24636;DHT22;12772;49.794;10.024;2023-01-16T01:38:20;6.00;50.80
24636;DHT22;12772;49.794;10.024;2023-01-16T01:42:22;6.10;50.80
24636;DHT22;12772;49.794;10.024;2023-01-16T01:46:45;6.30;50.80
24636;DHT22;12772;49.794;10.024;2023-01-16T01:51:00;6.50;50.70
24636;DHT22;12772;49.794;10.024;2023-01-16T01:55:05;6.60;50.80
24636;DHT22;12772;49.794;10.024;2023-01-16T01:59:15;6.40;50.50
24636;DHT22;12772;49.794;10.024;2023-01-16T02:07:30;6.10;50.10
24636;DHT22;12772;49.794;10.024;2023-01-16T02:11:40;6.40;50.30
24636;DHT22;12772;49.794;10.024;2023-01-16T02:15:44;6.70;50.40
24636;DHT22;12772;49.794;10.024;2023-01-16T02:20:22;6.70;50.30
24636;DHT22;12772;49.794;10.024;2023-01-16T02:29:54;6.90;49.90
24636;DHT22;12772;49.794;10.024;2023-01-16T02:37:49;6.60;49.30
24636;DHT22;12772;49.794;10.024;2023-01-16T02:46:17;6.80;49.50
24636;DHT22;12772;49.794;10.024;2023-01-16T02:50:40;6.60;48.60
24636;DHT22;12772;49.794;10.024;2023-01-16T02:55:07;6.50;48.80
24636;DHT22;12772;49.794;10.024;2023-01-16T02:59:14;6.40;48.80
24636;DHT22;12772;49.794;10.024;2023-01-16T03:03:34;6.40;48.30
24636;DHT22;12772;49.794;10.024;2023-01-16T03:12:00;6.70;48.30
24636;DHT22;12772;49.794;10.024;2023-01-16T03:16:21;6.80;48.40
24636;DHT22;12772;49.794;10.024;2023-01-16T03:29:39;6.70;48.10
24636;DHT22;12772;49.794;10.024;2023-01-16T03:34:10;6.70;47.90
24636;DHT22;12772;49.794;10.024;2023-01-16T03:38:14;6.80;47.80
24636;DHT22;12772;49.794;10.024;2023-01-16T03:42:23;6.80;47.80
24636;DHT22;12772;49.794;10.024;2023-01-16T03:46:31;6.40;47.30
24636;DHT22;12772;49.794;10.024;2023-01-16T03:50:36;6.50;47.40
24636;DHT22;12772;49.794;10.024;2023-01-16T03:55:01;6.90;47.50
24636;DHT22;12772;49.794;10.024;2023-01-16T03:59:03;6.50;47.10
24636;DHT22;12772;49.794;10.024;2023-01-16T04:03:11;6.60;47.20
24636;DHT22;12772;49.794;10.024;2023-01-16T04:07:20;6.90;47.40
24636;DHT22;12772;49.794;10.024;2023-01-16T04:11:26;7.10;47.70
24636;DHT22;12772;49.794;10.024;2023-01-16T04:15:30;7.10;47.70
24636;DHT22;12772;49.794;10.024;2023-01-16T04:19:33;6.90;47.20
24636;DHT22;12772;49.794;10.024;2023-01-16T04:23:36;7.00;47.00
24636;DHT22;12772;49.794;10.024;2023-01-16T04:27:38;6.60;46.50
24636;DHT22;12772;49.794;10.024;2023-01-16T04:31:40;7.00;46.70
24636;DHT22;12772;49.794;10.024;2023-01-16T04:35:42;7.10;46.90
24636;DHT22;12772;49.794;10.024;2023-01-16T04:39:45;6.60;46.60
24636;DHT22;12772;49.794;10.024;2023-01-16T04:43:48;7.30;47.30
24636;DHT22;12772;49.794;10.024;2023-01-16T04:47:51;7.20;47.10
24636;DHT22;12772;49.794;10.024;2023-01-16T04:51:54;7.00;47.00
24636;DHT22;12772;49.794;10.024;2023-01-16T04:55:56;6.50;46.40
24636;DHT22;12772;49.794;10.024;2023-01-16T04:59:58;7.10;47.10
24636;DHT22;12772;49.794;10.024;2023-01-16T05:04:01;7.00;46.90
24636;DHT22;12772;49.794;10.024;2023-01-16T05:08:03;6.90;46.80
24636;DHT22;12772;49.794;10.024;2023-01-16T05:12:22;7.10;47.20
24636;DHT22;12772;49.794;10.024;2023-01-16T05:16:24;6.60;46.70
24636;DHT22;12772;49.794;10.024;2023-01-16T05:20:26;6.80;47.00
24636;DHT22;12772;49.794;10.024;2023-01-16T05:24:28;6.80;47.20
24636;DHT22;12772;49.794;10.024;2023-01-16T05:28:31;7.20;47.50
24636;DHT22;12772;49.794;10.024;2023-01-16T05:32:33;7.00;47.40
24636;DHT22;12772;49.794;10.024;2023-01-16T05:36:35;7.00;47.30
24636;DHT22;12772;49.794;10.024;2023-01-16T05:40:37;6.80;47.10
24636;DHT22;12772;49.794;10.024;2023-01-16T05:44:39;6.40;46.70
24636;DHT22;12772;49.794;10.024;2023-01-16T05:48:41;7.10;47.40
24636;DHT22;12772;49.794;10.024;2023-01-16T05:52:44;6.90;47.10
24636;DHT22;12772;49.794;10.024;2023-01-16T05:56:46;6.40;46.50
24636;DHT22;12772;49.794;10.024;2023-01-16T06:00:48;6.40;46.60
24636;DHT22;12772;49.794;10.024;2023-01-16T06:04:50;6.80;47.20
24636;DHT22;12772;49.794;10.024;2023-01-16T06:08:52;6.80;47.50
24636;DHT22;12772;49.794;10.024;2023-01-16T06:12:54;6.70;47.50
24636;DHT22;12772;49.794;10.024;2023-01-16T06:16:56;6.80;47.50
24636;DHT22;12772;49.794;10.024;2023-01-16T06:20:59;6.80;47.10
24636;DHT22;12772;49.794;10.024;2023-01-16T06:25:02;6.60;47.10
24636;DHT22;12772;49.794;10.024;2023-01-16T06:29:04;6.70;47.50
24636;DHT22;12772;49.794;10.024;2023-01-16T06:33:06;6.80;47.30
24636;DHT22;12772;49.794;10.024;2023-01-16T06:37:09;6.30;47.00
24636;DHT22;12772;49.794;10.024;2023-01-16T06:41:11;6.60;47.20
24636;DHT22;12772;49.794;10.024;2023-01-16T06:45:13;6.60;47.10
24636;DHT22;12772;49.794;10.024;2023-01-16T06:49:15;6.70;47.10
24636;DHT22;12772;49.794;10.024;2023-01-16T06:53:17;6.50;47.10
24636;DHT22;12772;49.794;10.024;2023-01-16T06:57:19;5.90;46.60
24636;DHT22;12772;49.794;10.024;2023-01-16T07:01:21;5.80;46.60
24636;DHT22;12772;49.794;10.024;2023-01-16T07:05:24;6.00;46.90
24636;DHT22;12772;49.794;10.024;2023-01-16T07:09:27;6.20;47.30
24636;DHT22;12772;49.794;10.024;2023-01-16T07:13:30;5.90;47.40
24636;DHT22;12772;49.794;10.024;2023-01-16T07:17:32;5.50;46.90
24636;DHT22;12772;49.794;10.024;2023-01-16T07:21:52;5.80;47.60
24636;DHT22;12772;49.794;10.024;2023-01-16T07:26:14;5.80;47.80
24636;DHT22;12772;49.794;10.024;2023-01-16T07:30:19;5.90;48.00
24636;DHT22;12772;49.794;10.024;2023-01-16T07:34:22;5.30;47.50
24636;DHT22;12772;49.794;10.024;2023-01-16T07:38:24;5.70;48.40
24636;DHT22;12772;49.794;10.024;2023-01-16T07:42:26;5.50;48.50
24636;DHT22;12772;49.794;10.024;2023-01-16T07:46:28;5.60;48.80
24636;DHT22;12772;49.794;10.024;2023-01-16T07:50:30;4.90;48.20
24636;DHT22;12772;49.794;10.024;2023-01-16T07:54:33;5.30;48.80
24636;DHT22;12772;49.794;10.024;2023-01-16T07:58:36;5.30;48.80
24636;DHT22;12772;49.794;10.024;2023-01-16T08:02:42;5.30;49.00
24636;DHT22;12772;49.794;10.024;2023-01-16T08:06:44;5.10;49.10
24636;DHT22;12772;49.794;10.024;2023-01-16T08:10:46;5.20;49.40
24636;DHT22;12772;49.794;10.024;2023-01-16T08:14:48;4.80;48.90
24636;DHT22;12772;49.794;10.024;2023-01-16T08:18:50;5.20;49.50
24636;DHT22;12772;49.794;10.024;2023-01-16T08:22:52;5.20;49.60
24636;DHT22;12772;49.794;10.024;2023-01-16T08:26:56;4.90;49.50
24636;DHT22;12772;49.794;10.024;2023-01-16T08:31:06;5.30;50.00
24636;DHT22;12772;49.794;10.024;2023-01-16T08:35:10;5.20;49.90
24636;DHT22;12772;49.794;10.024;2023-01-16T08:39:12;5.20;50.10
24636;DHT22;12772;49.794;10.024;2023-01-16T08:43:14;5.10;49.90
24636;DHT22;12772;49.794;10.024;2023-01-16T08:47:34;4.80;49.50
24636;DHT22;12772;49.794;10.024;2023-01-16T08:51:55;5.20;49.90
24636;DHT22;12772;49.794;10.024;2023-01-16T08:55:57;5.20;50.00
24636;DHT22;12772;49.794;10.024;2023-01-16T08:59:59;5.20;50.20
24636;DHT22;12772;49.794;10.024;2023-01-16T09:04:01;4.80;49.90
24636;DHT22;12772;49.794;10.024;2023-01-16T09:08:03;5.20;50.50
24636;DHT22;12772;49.794;10.024;2023-01-16T09:12:08;5.40;50.60
24636;DHT22;12772;49.794;10.024;2023-01-16T09:16:28;5.30;50.40
24636;DHT22;12772;49.794;10.024;2023-01-16T09:20:30;5.10;50.10
24636;DHT22;12772;49.794;10.024;2023-01-16T09:24:33;5.20;50.20
24636;DHT22;12772;49.794;10.024;2023-01-16T09:28:35;5.40;50.40
24636;DHT22;12772;49.794;10.024;2023-01-16T09:32:37;5.60;50.70
24636;DHT22;12772;49.794;10.024;2023-01-16T09:36:39;5.60;50.50
24636;DHT22;12772;49.794;10.024;2023-01-16T09:40:46;5.40;50.00
24636;DHT22;12772;49.794;10.024;2023-01-16T09:44:51;5.70;49.70
24636;DHT22;12772;49.794;10.024;2023-01-16T09:49:17;5.50;49.20
24636;DHT22;12772;49.794;10.024;2023-01-16T09:53:39;5.90;49.50
24636;DHT22;12772;49.794;10.024;2023-01-16T09:58:03;6.10;48.80
24636;DHT22;12772;49.794;10.024;2023-01-16T10:02:29;6.40;48.60
24636;DHT22;12772;49.794;10.024;2023-01-16T10:06:39;6.30;47.40
24636;DHT22;12772;49.794;10.024;2023-01-16T10:11:02;6.80;47.00
24636;DHT22;12772;49.794;10.024;2023-01-16T10:15:46;6.70;46.00
24636;DHT22;12772;49.794;10.024;2023-01-16T10:20:27;7.00;45.30
24636;DHT22;12772;49.794;10.024;2023-01-16T10:29:24;7.40;43.20
24636;DHT22;12772;49.794;10.024;2023-01-16T10:33:42;7.50;42.30
24636;DHT22;12772;49.794;10.024;2023-01-16T10:37:47;7.60;42.50
24636;DHT22;12772;49.794;10.024;2023-01-16T10:42:09;7.70;41.40
24636;DHT22;12772;49.794;10.024;2023-01-16T10:46:29;7.60;40.60
24636;DHT22;12772;49.794;10.024;2023-01-16T10:50:49;7.60;40.60
24636;DHT22;12772;49.794;10.024;2023-01-16T10:54:55;7.80;40.20
24636;DHT22;12772;49.794;10.024;2023-01-16T10:58:58;7.90;40.30
24636;DHT22;12772;49.794;10.024;2023-01-16T11:03:14;7.40;41.80
24636;DHT22;12772;49.794;10.024;2023-01-16T11:07:21;7.80;43.00
24636;DHT22;12772;49.794;10.024;2023-01-16T11:11:23;7.60;45.50
24636;DHT22;12772;49.794;10.024;2023-01-16T11:16:01;7.00;46.70
24636;DHT22;12772;49.794;10.024;2023-01-16T11:20:34;7.10;48.60
24636;DHT22;12772;49.794;10.024;2023-01-16T11:24:39;6.80;49.90
24636;DHT22;12772;49.794;10.024;2023-01-16T11:28:45;6.20;51.80
24636;DHT22;12772;49.794;10.024;2023-01-16T11:32:49;6.50;52.70
24636;DHT22;12772;49.794;10.024;2023-01-16T11:36:57;6.20;52.60
24636;DHT22;12772;49.794;10.024;2023-01-16T11:41:01;6.30;53.00
24636;DHT22;12772;49.794;10.024;2023-01-16T11:45:14;6.50;53.40
24636;DHT22;12772;49.794;10.024;2023-01-16T11:53:39;6.50;53.00
24636;DHT22;12772;49.794;10.024;2023-01-16T11:58:14;6.70;53.30
24636;DHT22;12772;49.794;10.024;2023-01-16T12:02:41;6.60;52.80
24636;DHT22;12772;49.794;10.024;2023-01-16T12:07:03;6.70;50.90
24636;DHT22;12772;49.794;10.024;2023-01-16T12:11:11;6.70;49.30
24636;DHT22;12772;49.794;10.024;2023-01-16T12:19:34;6.80;48.20
24636;DHT22;12772;49.794;10.024;2023-01-16T12:24:00;7.00;47.90
24636;DHT22;12772;49.794;10.024;2023-01-16T12:28:15;6.90;45.60
24636;DHT22;12772;49.794;10.024;2023-01-16T12:32:38;7.10;45.30
24636;DHT22;12772;49.794;10.024;2023-01-16T12:41:16;6.60;45.90
24636;DHT22;12772;49.794;10.024;2023-01-16T12:45:50;6.30;47.00
24636;DHT22;12772;49.794;10.024;2023-01-16T12:50:27;6.80;48.80
24636;DHT22;12772;49.794;10.024;2023-01-16T12:55:08;6.60;49.00
24636;DHT22;12772;49.794;10.024;2023-01-16T12:59:19;6.70;49.60
24636;DHT22;12772;49.794;10.024;2023-01-16T13:03:47;6.70;50.00
24636;DHT22;12772;49.794;10.024;2023-01-16T13:12:25;6.60;50.30
24636;DHT22;12772;49.794;10.024;2023-01-16T13:17:07;6.40;50.80
24636;DHT22;12772;49.794;10.024;2023-01-16T13:21:16;6.70;51.80
24636;DHT22;12772;49.794;10.024;2023-01-16T13:25:33;6.50;52.30
24636;DHT22;12772;49.794;10.024;2023-01-16T13:29:41;6.60;53.00
24636;DHT22;12772;49.794;10.024;2023-01-16T13:33:53;6.60;53.80
24636;DHT22;12772;49.794;10.024;2023-01-16T13:42:41;6.10;54.10
24636;DHT22;12772;49.794;10.024;2023-01-16T13:46:44;5.90;53.90
24636;DHT22;12772;49.794;10.024;2023-01-16T13:51:00;5.90;53.90
24636;DHT22;12772;49.794;10.024;2023-01-16T13:55:03;6.00;54.60
24636;DHT22;12772;49.794;10.024;2023-01-16T13:59:24;6.40;55.30
24636;DHT22;12772;49.794;10.024;2023-01-16T14:03:31;6.00;55.40
24636;DHT22;12772;49.794;10.024;2023-01-16T14:12:21;6.40;55.90
24636;DHT22;12772;49.794;10.024;2023-01-16T14:16:31;6.40;55.80
24636;DHT22;12772;49.794;10.024;2023-01-16T14:20:52;6.10;55.30
24636;DHT22;12772;49.794;10.024;2023-01-16T14:25:04;6.10;55.00
24636;DHT22;12772;49.794;10.024;2023-01-16T14:29:19;6.60;54.70
24636;DHT22;12772;49.794;10.024;2023-01-16T14:33:22;6.70;54.70
24636;DHT22;12772;49.794;10.024;2023-01-16T14:37:35;6.60;54.60
24636;DHT22;12772;49.794;10.024;2023-01-16T14:41:39;6.60;54.60
24636;DHT22;12772;49.794;10.024;2023-01-16T14:55:15;6.40;54.40
24636;DHT22;12772;49.794;10.024;2023-01-16T14:59:32;6.80;54.80
24636;DHT22;12772;49.794;10.024;2023-01-16T15:03:35;6.90;54.90
24636;DHT22;12772;49.794;10.024;2023-01-16T15:07:48;6.40;55.10
24636;DHT22;12772;49.794;10.024;2023-01-16T15:11:58;6.60;54.60
24636;DHT22;12772;49.794;10.024;2023-01-16T15:16:06;7.00;55.00
24636;DHT22;12772;49.794;10.024;2023-01-16T15:20:29;7.30;55.00
24636;DHT22;12772;49.794;10.024;2023-01-16T15:25:04;7.10;54.60
24636;DHT22;12772;49.794;10.024;2023-01-16T15:33:28;6.80;54.20
24636;DHT22;12772;49.794;10.024;2023-01-16T15:37:52;6.70;54.10
24636;DHT22;12772;49.794;10.024;2023-01-16T15:42:18;7.20;54.40
24636;DHT22;12772;49.794;10.024;2023-01-16T15:50:56;7.00;53.80
24636;DHT22;12772;49.794;10.024;2023-01-16T15:55:14;7.10;53.70
24636;DHT22;12772;49.794;10.024;2023-01-16T15:59:29;7.10;53.40
24636;DHT22;12772;49.794;10.024;2023-01-16T16:03:44;7.00;53.20
24636;DHT22;12772;49.794;10.024;2023-01-16T16:07:47;6.90;52.70
24636;DHT22;12772;49.794;10.024;2023-01-16T16:11:49;7.00;52.50
24636;DHT22;12772;49.794;10.024;2023-01-16T16:15:58;6.90;52.20
24636;DHT22;12772;49.794;10.024;2023-01-16T16:20:36;6.50;51.20
24636;DHT22;12772;49.794;10.024;2023-01-16T16:24:39;6.60;50.90
24636;DHT22;12772;49.794;10.024;2023-01-16T16:28:42;6.80;50.50
24636;DHT22;12772;49.794;10.024;2023-01-16T16:32:44;6.60;50.30
24636;DHT22;12772;49.794;10.024;2023-01-16T16:36:47;6.50;49.80
24636;DHT22;12772;49.794;10.024;2023-01-16T16:45:20;7.10;49.70
24636;DHT22;12772;49.794;10.024;2023-01-16T16:53:25;7.00;48.70
24636;DHT22;12772;49.794;10.024;2023-01-16T16:57:42;6.70;48.10
24636;DHT22;12772;49.794;10.024;2023-01-16T17:01:49;7.20;48.00
24636;DHT22;12772;49.794;10.024;2023-01-16T17:05:55;7.30;47.70
24636;DHT22;12772;49.794;10.024;2023-01-16T17:09:59;6.80;46.70
24636;DHT22;12772;49.794;10.024;2023-01-16T17:14:01;7.00;46.70
24636;DHT22;12772;49.794;10.024;2023-01-16T17:18:03;7.00;45.90
24636;DHT22;12772;49.794;10.024;2023-01-16T17:22:06;7.10;46.30
24636;DHT22;12772;49.794;10.024;2023-01-16T17:26:08;7.00;46.20
24636;DHT22;12772;49.794;10.024;2023-01-16T17:30:13;7.40;46.40
24636;DHT22;12772;49.794;10.024;2023-01-16T17:34:18;7.40;47.40
24636;DHT22;12772;49.794;10.024;2023-01-16T17:38:20;7.50;47.50
24636;DHT22;12772;49.794;10.024;2023-01-16T17:42:22;7.00;48.00
24636;DHT22;12772;49.794;10.024;2023-01-16T17:46:42;7.00;48.50
24636;DHT22;12772;49.794;10.024;2023-01-16T17:50:47;7.40;50.00
24636;DHT22;12772;49.794;10.024;2023-01-16T17:54:50;7.40;50.90
24636;DHT22;12772;49.794;10.024;2023-01-16T17:59:09;6.90;51.30
24636;DHT22;12772;49.794;10.024;2023-01-16T18:03:12;7.20;52.40
24636;DHT22;12772;49.794;10.024;2023-01-16T18:07:14;7.20;52.90
24636;DHT22;12772;49.794;10.024;2023-01-16T18:11:17;7.10;53.20
24636;DHT22;12772;49.794;10.024;2023-01-16T18:15:37;7.30;53.40
24636;DHT22;12772;49.794;10.024;2023-01-16T18:19:58;7.20;53.90
24636;DHT22;12772;49.794;10.024;2023-01-16T18:24:00;6.80;54.20
24636;DHT22;12772;49.794;10.024;2023-01-16T18:28:02;6.90;54.90
24636;DHT22;12772;49.794;10.024;2023-01-16T18:32:05;7.00;55.00
24636;DHT22;12772;49.794;10.024;2023-01-16T18:36:27;7.10;55.80
24636;DHT22;12772;49.794;10.024;2023-01-16T18:40:29;7.20;56.60
24636;DHT22;12772;49.794;10.024;2023-01-16T18:44:49;7.00;57.10
24636;DHT22;12772;49.794;10.024;2023-01-16T18:49:10;6.50;57.10
24636;DHT22;12772;49.794;10.024;2023-01-16T18:53:45;7.10;58.20
24636;DHT22;12772;49.794;10.024;2023-01-16T18:58:10;7.10;58.20
24636;DHT22;12772;49.794;10.024;2023-01-16T19:06:44;7.00;58.20
24636;DHT22;12772;49.794;10.024;2023-01-16T19:10:46;7.00;58.40
24636;DHT22;12772;49.794;10.024;2023-01-16T19:14:50;7.10;58.70
24636;DHT22;12772;49.794;10.024;2023-01-16T19:18:53;6.90;58.70
24636;DHT22;12772;49.794;10.024;2023-01-16T19:22:57;6.90;59.00
24636;DHT22;12772;49.794;10.024;2023-01-16T19:27:00;6.40;58.60
24636;DHT22;12772;49.794;10.024;2023-01-16T19:31:02;6.70;59.00
24636;DHT22;12772;49.794;10.024;2023-01-16T19:35:04;6.80;59.70
24636;DHT22;12772;49.794;10.024;2023-01-16T19:39:07;6.80;59.70
24636;DHT22;12772;49.794;10.024;2023-01-16T19:43:09;7.00;60.20
24636;DHT22;12772;49.794;10.024;2023-01-16T19:47:30;6.80;60.30
24636;DHT22;12772;49.794;10.024;2023-01-16T19:51:32;6.70;60.30
24636;DHT22;12772;49.794;10.024;2023-01-16T19:55:34;6.70;60.70
24636;DHT22;12772;49.794;10.024;2023-01-16T19:59:37;6.30;60.60
24636;DHT22;12772;49.794;10.024;2023-01-16T20:03:41;6.50;61.00
24636;DHT22;12772;49.794;10.024;2023-01-16T20:07:45;6.40;61.30
24636;DHT22;12772;49.794;10.024;2023-01-16T20:11:49;6.00;61.40
24636;DHT22;12772;49.794;10.024;2023-01-16T20:16:09;6.50;61.90
24636;DHT22;12772;49.794;10.024;2023-01-16T20:20:11;5.90;61.40
24636;DHT22;12772;49.794;10.024;2023-01-16T20:24:14;5.90;61.40
24636;DHT22;12772;49.794;10.024;2023-01-16T20:28:16;5.80;61.40
24636;DHT22;12772;49.794;10.024;2023-01-16T20:32:18;6.20;61.80
24636;DHT22;12772;49.794;10.024;2023-01-16T20:36:20;6.10;61.70
24636;DHT22;12772;49.794;10.024;2023-01-16T20:40:21;6.10;61.90
24636;DHT22;12772;49.794;10.024;2023-01-16T20:44:24;5.90;61.60
24636;DHT22;12772;49.794;10.024;2023-01-16T20:48:43;5.80;61.50
24636;DHT22;12772;49.794;10.024;2023-01-16T20:52:46;6.10;61.80
24636;DHT22;12772;49.794;10.024;2023-01-16T20:56:50;6.10;61.60
24636;DHT22;12772;49.794;10.024;2023-01-16T21:01:00;5.80;61.50
24636;DHT22;12772;49.794;10.024;2023-01-16T21:05:02;5.50;61.50
24636;DHT22;12772;49.794;10.024;2023-01-16T21:09:05;6.00;61.80
24636;DHT22;12772;49.794;10.024;2023-01-16T21:13:10;5.50;61.50
24636;DHT22;12772;49.794;10.024;2023-01-16T21:17:32;6.00;61.80
24636;DHT22;12772;49.794;10.024;2023-01-16T21:21:52;6.00;61.90
24636;DHT22;12772;49.794;10.024;2023-01-16T21:25:56;5.80;61.90
24636;DHT22;12772;49.794;10.024;2023-01-16T21:30:09;5.90;62.10
24636;DHT22;12772;49.794;10.024;2023-01-16T21:34:12;5.80;62.00
24636;DHT22;12772;49.794;10.024;2023-01-16T21:38:14;5.60;62.00
24636;DHT22;12772;49.794;10.024;2023-01-16T21:42:16;5.80;62.20
24636;DHT22;12772;49.794;10.024;2023-01-16T21:46:51;5.90;62.20
24636;DHT22;12772;49.794;10.024;2023-01-16T21:50:53;5.90;62.30
24636;DHT22;12772;49.794;10.024;2023-01-16T21:54:55;5.60;61.90
24636;DHT22;12772;49.794;10.024;2023-01-16T21:58:58;6.10;62.20
24636;DHT22;12772;49.794;10.024;2023-01-16T22:03:03;6.10;62.20
24636;DHT22;12772;49.794;10.024;2023-01-16T22:07:05;6.10;62.10
24636;DHT22;12772;49.794;10.024;2023-01-16T22:11:15;6.20;62.10
24636;DHT22;12772;49.794;10.024;2023-01-16T22:15:39;6.10;62.00
24636;DHT22;12772;49.794;10.024;2023-01-16T22:19:59;6.00;62.20
24636;DHT22;12772;49.794;10.024;2023-01-16T22:24:22;5.90;62.40
24636;DHT22;12772;49.794;10.024;2023-01-16T22:28:25;5.90;62.30
24636;DHT22;12772;49.794;10.024;2023-01-16T22:32:30;5.70;62.20
24636;DHT22;12772;49.794;10.024;2023-01-16T22:36:32;5.60;62.10
24636;DHT22;12772;49.794;10.024;2023-01-16T22:40:34;6.10;62.50
24636;DHT22;12772;49.794;10.024;2023-01-16T22:44:36;5.90;62.30
24636;DHT22;12772;49.794;10.024;2023-01-16T22:48:58;5.50;61.90
24636;DHT22;12772;49.794;10.024;2023-01-16T22:53:00;6.00;62.40
24636;DHT22;12772;49.794;10.024;2023-01-16T22:57:02;5.90;62.00
24636;DHT22;12772;49.794;10.024;2023-01-16T23:01:09;5.60;61.80
24636;DHT22;12772;49.794;10.024;2023-01-16T23:05:12;5.80;61.70
24636;DHT22;12772;49.794;10.024;2023-01-16T23:09:14;5.60;61.40
24636;DHT22;12772;49.794;10.024;2023-01-16T23:13:16;6.10;61.60
24636;DHT22;12772;49.794;10.024;2023-01-16T23:17:18;5.90;61.40
24636;DHT22;12772;49.794;10.024;2023-01-16T23:21:20;6.00;61.40
24636;DHT22;12772;49.794;10.024;2023-01-16T23:25:22;6.10;61.10
24636;DHT22;12772;49.794;10.024;2023-01-16T23:29:24;5.70;60.60
24636;DHT22;12772;49.794;10.024;2023-01-16T23:33:28;6.20;61.10
24636;DHT22;12772;49.794;10.024;2023-01-16T23:37:31;6.20;60.40
24636;DHT22;12772;49.794;10.024;2023-01-16T23:41:33;6.10;60.80
24636;DHT22;12772;49.794;10.024;2023-01-16T23:45:53;6.00;60.30
24636;DHT22;12772;49.794;10.024;2023-01-16T23:49:55;6.30;60.90
24636;DHT22;12772;49.794;10.024;2023-01-16T23:53:57;6.00;60.00
24636;DHT22;12772;49.794;10.024;2023-01-16T23:57:59;6.10;59.80
